Time;durP1;ratioP1;P1;durP2;ratioP2;P2;SDS_P1;SDS_P2;PMS_P1;PMS_P2;Temp;Humidity;BMP_temperature;BMP_pressure;BME280_temperature;BME280_humidity;BME280_pressure;Samples;Min_cycle;Max_cycle;Signal;HPM_P1;HPM_P2
2022/04/18 00:01:35;;;;;;;3.35;3.10;;;8.80;99.90;;;;;;5102933;27;20206;-74
2022/04/18 00:04:01;;;;;;;9.32;3.70;;;8.70;99.90;;;;;;5138055;27;20201;-75
2022/04/18 00:06:28;;;;;;;3.47;3.28;;;8.80;99.90;;;;;;5138649;27;20534;-74
2022/04/18 00:08:54;;;;;;;3.28;3.08;;;8.80;99.90;;;;;;5138497;27;20599;-74
2022/04/18 00:11:20;;;;;;;4.47;3.72;;;8.70;99.90;;;;;;5138373;27;20214;-74
2022/04/18 00:13:47;;;;;;;4.03;3.65;;;8.70;99.90;;;;;;5119847;27;20194;-74
2022/04/18 00:16:13;;;;;;;3.65;3.45;;;8.70;99.90;;;;;;5138275;27;20202;-74
2022/04/18 00:18:39;;;;;;;3.92;3.63;;;8.60;99.90;;;;;;5137543;27;20190;-74
2022/04/18 00:21:06;;;;;;;4.65;3.60;;;8.50;99.90;;;;;;5138722;27;20194;-74
2022/04/18 00:23:32;;;;;;;5.15;4.00;;;8.50;99.90;;;;;;5137217;27;20354;-74
2022/04/18 00:25:59;;;;;;;4.47;4.18;;;8.50;99.90;;;;;;5138033;27;20202;-74
2022/04/18 00:28:25;;;;;;;4.20;3.78;;;8.40;99.90;;;;;;5137840;27;20197;-75
2022/04/18 00:30:53;;;;;;;4.43;3.63;;;8.20;99.90;;;;;;5137933;27;20226;-75
2022/04/18 00:33:19;;;;;;;6.00;4.20;;;8.20;99.90;;;;;;5136787;27;20198;-74
2022/04/18 00:35:46;;;;;;;3.95;3.45;;;8.00;99.90;;;;;;5137832;27;20213;-75
2022/04/18 00:38:12;;;;;;;6.40;4.28;;;7.80;99.90;;;;;;5137235;27;20209;-75
2022/04/18 00:40:39;;;;;;;4.72;3.55;;;7.50;99.90;;;;;;5137762;27;20201;-75
2022/04/18 00:43:06;;;;;;;6.10;4.00;;;7.30;99.90;;;;;;5119918;27;20262;-74
2022/04/18 00:45:33;;;;;;;4.32;3.92;;;7.20;99.90;;;;;;5136970;27;20209;-75
2022/04/18 00:48:00;;;;;;;4.20;3.90;;;7.20;99.90;;;;;;5118451;27;20653;-74
2022/04/18 00:50:27;;;;;;;3.53;3.22;;;7.30;99.90;;;;;;5137447;27;20209;-75
2022/04/18 00:52:55;;;;;;;4.53;3.63;;;7.30;99.90;;;;;;5137459;27;20201;-75
2022/04/18 00:55:24;;;;;;;3.97;3.65;;;7.30;99.90;;;;;;5136398;27;20205;-75
2022/04/18 00:57:52;;;;;;;4.75;4.07;;;7.30;99.90;;;;;;5119472;27;20624;-74
2022/04/18 01:00:19;;;;;;;4.43;4.03;;;7.30;99.90;;;;;;5138508;27;20205;-73
2022/04/18 01:02:46;;;;;;;4.05;3.65;;;7.40;99.90;;;;;;5138610;27;20294;-73
2022/04/18 01:05:12;;;;;;;5.85;2.90;;;7.40;99.90;;;;;;5137038;27;20198;-73
2022/04/18 01:07:39;;;;;;;4.65;3.30;;;7.30;99.90;;;;;;5138151;27;20205;-73
2022/04/18 01:10:07;;;;;;;4.95;3.13;;;7.40;99.90;;;;;;5136694;27;20241;-73
2022/04/18 01:12:34;;;;;;;4.63;3.60;;;7.40;99.90;;;;;;5135935;27;20190;-72
2022/04/18 01:15:00;;;;;;;3.30;2.80;;;7.40;99.90;;;;;;5136765;27;20198;-73
2022/04/18 01:17:27;;;;;;;3.33;2.90;;;7.40;99.90;;;;;;5136731;27;20622;-72
2022/04/18 01:19:54;;;;;;;4.05;3.30;;;7.30;99.90;;;;;;5117924;27;20244;-73
2022/04/18 01:22:20;;;;;;;2.58;2.38;;;7.20;99.90;;;;;;5136831;27;20202;-72
2022/04/18 01:30:17;;;;;;;4.20;2.80;;;7.10;99.90;;;;;;5137000;27;20185;-73
2022/04/18 01:32:44;;;;;;;4.68;3.80;;;7.20;99.90;;;;;;5136535;27;20559;-73
2022/04/18 01:35:10;;;;;;;3.08;2.88;;;7.30;99.90;;;;;;5136434;27;20212;-73
2022/04/18 01:37:37;;;;;;;2.95;2.65;;;7.40;99.90;;;;;;5136485;27;20209;-72
2022/04/18 01:40:05;;;;;;;3.60;3.25;;;7.40;99.90;;;;;;5136422;27;20587;-73
2022/04/18 01:42:31;;;;;;;4.45;3.95;;;7.40;99.90;;;;;;5136768;27;20230;-73
2022/04/18 01:45:00;;;;;;;4.00;3.70;;;7.40;99.90;;;;;;5135617;27;20657;-73
2022/04/18 01:47:27;;;;;;;4.35;3.80;;;7.30;99.90;;;;;;5137056;27;20189;-72
2022/04/18 01:49:53;;;;;;;4.05;3.63;;;7.30;99.90;;;;;;5136515;27;20202;-73
2022/04/18 01:52:20;;;;;;;5.00;4.05;;;7.20;99.90;;;;;;5118346;27;20208;-73
2022/04/18 01:54:46;;;;;;;3.60;3.35;;;7.20;99.90;;;;;;5117823;27;20208;-73
2022/04/18 01:57:13;;;;;;;4.25;3.30;;;7.10;99.90;;;;;;5118452;27;20201;-72
2022/04/18 01:59:42;;;;;;;4.38;3.97;;;7.10;99.90;;;;;;5117887;27;20254;-73
2022/04/18 02:02:08;;;;;;;5.55;3.78;;;7.00;99.90;;;;;;5117730;27;20201;-73
2022/04/18 02:04:35;;;;;;;3.70;3.38;;;7.00;99.90;;;;;;5116368;27;20683;-73
2022/04/18 02:07:02;;;;;;;3.70;3.40;;;7.00;99.90;;;;;;5136176;27;20222;-72
2022/04/18 02:09:29;;;;;;;3.97;3.65;;;6.90;99.90;;;;;;5117621;27;20232;-72
2022/04/18 02:11:55;;;;;;;4.20;3.42;;;6.90;99.90;;;;;;5117779;28;20201;-71
2022/04/18 02:14:21;;;;;;;3.72;3.42;;;6.90;99.90;;;;;;5135660;27;20206;-71
2022/04/18 02:16:48;;;;;;;5.30;4.30;;;6.90;99.90;;;;;;5136139;27;20205;-71
2022/04/18 02:19:14;;;;;;;3.78;3.40;;;6.90;99.90;;;;;;5136352;27;20197;-71
2022/04/18 02:21:41;;;;;;;4.70;3.70;;;6.90;99.90;;;;;;5135919;27;20681;-71
2022/04/18 02:24:07;;;;;;;4.50;4.10;;;6.80;99.90;;;;;;5136455;27;20251;-73
2022/04/18 02:26:34;;;;;;;6.07;4.03;;;6.70;99.90;;;;;;5135367;28;20766;-71
2022/04/18 02:29:00;;;;;;;5.50;4.45;;;6.70;99.90;;;;;;5135838;28;20206;-71
2022/04/18 02:31:27;;;;;;;3.92;3.60;;;6.70;99.90;;;;;;5135806;28;20653;-71
2022/04/18 02:33:53;;;;;;;6.60;3.60;;;6.60;99.90;;;;;;5136236;28;20197;-71
2022/04/18 02:36:19;;;;;;;4.63;3.10;;;6.60;99.90;;;;;;5136195;28;20202;-71
2022/04/18 02:38:46;;;;;;;3.20;3.00;;;6.60;99.90;;;;;;5117643;28;20217;-71
2022/04/18 02:41:12;;;;;;;3.03;2.83;;;6.50;99.90;;;;;;5134772;28;20218;-71
2022/04/18 02:43:39;;;;;;;4.07;3.13;;;6.50;99.90;;;;;;5116890;28;20201;-71
2022/04/18 02:46:05;;;;;;;2.90;2.70;;;6.50;99.90;;;;;;5116769;28;20259;-71
2022/04/18 02:48:32;;;;;;;3.00;2.80;;;6.50;99.90;;;;;;5117530;28;20197;-71
2022/04/18 02:50:58;;;;;;;3.33;3.00;;;6.50;99.90;;;;;;5117291;28;20198;-71
2022/04/18 02:53:25;;;;;;;3.88;3.50;;;6.40;99.90;;;;;;5117725;28;20206;-71
2022/04/18 02:55:51;;;;;;;3.15;2.95;;;6.30;99.90;;;;;;5120375;27;20570;-71
2022/04/18 02:58:19;;;;;;;3.20;3.00;;;6.20;99.90;;;;;;5120670;27;20200;-71
2022/04/18 03:00:45;;;;;;;3.15;2.72;;;6.20;99.90;;;;;;5121253;27;20693;-71
2022/04/18 03:03:12;;;;;;;4.07;3.10;;;6.10;99.90;;;;;;5139738;27;20654;-74
2022/04/18 03:05:38;;;;;;;3.55;3.08;;;6.10;99.90;;;;;;5139253;27;20241;-72
2022/04/18 03:08:05;;;;;;;5.60;3.13;;;6.10;99.90;;;;;;5139818;27;20233;-71
2022/04/18 03:13:16;;;;;;;3.13;2.85;;;6.10;99.90;;;;;;5139880;27;20186;-71
2022/04/18 03:15:42;;;;;;;3.63;3.25;;;6.00;99.90;;;;;;5139713;27;20252;-71
2022/04/18 03:18:09;;;;;;;5.60;3.65;;;6.00;99.90;;;;;;5139905;27;20302;-71
2022/04/18 03:20:35;;;;;;;3.33;2.80;;;6.00;99.90;;;;;;5139747;27;20218;-71
2022/04/18 03:23:01;;;;;;;3.33;2.70;;;6.00;99.90;;;;;;5139130;27;20206;-71
2022/04/18 03:25:28;;;;;;;4.18;3.08;;;6.00;99.90;;;;;;5138280;27;20596;-71
2022/04/18 03:27:54;;;;;;;4.63;3.35;;;6.00;99.90;;;;;;5139126;27;20201;-71
2022/04/18 03:30:21;;;;;;;4.05;3.30;;;6.00;99.90;;;;;;5139735;27;20269;-71
2022/04/18 03:32:47;;;;;;;3.45;3.25;;;5.80;99.90;;;;;;5139607;27;20202;-71
2022/04/18 03:35:14;;;;;;;4.60;2.85;;;5.80;99.90;;;;;;5139470;27;20254;-71
2022/04/18 03:40:25;;;;;;;3.67;3.38;;;5.70;99.90;;;;;;5139122;27;20202;-71
2022/04/18 03:42:52;;;;;;;4.65;3.75;;;5.70;99.90;;;;;;5139548;27;20220;-72
2022/04/18 03:45:18;;;;;;;4.28;3.88;;;5.70;99.90;;;;;;5139809;27;20194;-71
2022/04/18 03:47:44;;;;;;;4.30;3.90;;;5.70;99.90;;;;;;5139738;27;20650;-71
2022/04/18 03:50:11;;;;;;;6.15;3.47;;;5.70;99.90;;;;;;5120926;27;20201;-71
2022/04/18 03:52:38;;;;;;;3.85;3.55;;;5.50;99.90;;;;;;5120125;27;20198;-71
2022/04/18 03:55:04;;;;;;;4.45;4.10;;;5.50;99.90;;;;;;5138951;27;20641;-71
2022/04/18 03:57:31;;;;;;;3.83;3.35;;;5.40;99.90;;;;;;5138938;27;20202;-71
2022/04/18 03:59:57;;;;;;;6.13;3.88;;;5.40;99.90;;;;;;5138986;27;20198;-71
2022/04/18 04:02:24;;;;;;;6.50;3.30;;;5.50;99.90;;;;;;5120558;27;20709;-71
2022/04/18 04:04:50;;;;;;;4.70;4.18;;;5.40;99.90;;;;;;5138821;27;20201;-71
2022/04/18 04:07:17;;;;;;;7.53;4.20;;;5.40;99.90;;;;;;5118511;27;20221;-71
2022/04/18 04:09:43;;;;;;;3.75;3.45;;;5.30;99.90;;;;;;5118970;27;20226;-71
2022/04/18 04:12:10;;;;;;;6.47;3.55;;;5.30;99.90;;;;;;5137583;27;20202;-71
2022/04/18 04:14:36;;;;;;;4.18;3.78;;;5.20;99.90;;;;;;5138958;27;20249;-71
2022/04/18 04:17:03;;;;;;;9.32;4.18;;;5.20;99.90;;;;;;5138286;27;20205;-71
2022/04/18 04:19:29;;;;;;;3.97;3.67;;;5.10;99.90;;;;;;5119558;27;20206;-71
2022/04/18 04:21:56;;;;;;;4.50;4.00;;;5.10;99.90;;;;;;5138628;27;20716;-71
2022/04/18 04:24:22;;;;;;;25.75;4.25;;;5.20;99.90;;;;;;5138037;27;20205;-71
2022/04/18 04:26:49;;;;;;;3.97;3.60;;;5.10;99.90;;;;;;5138325;27;20205;-71
2022/04/18 04:29:17;;;;;;;4.45;3.47;;;5.20;99.90;;;;;;5138057;27;20653;-71
2022/04/18 04:31:43;;;;;;;3.95;3.50;;;5.20;99.90;;;;;;5138414;27;20270;-71
2022/04/18 04:34:11;;;;;;;3.92;3.63;;;5.20;99.90;;;;;;5120251;27;20638;-71
2022/04/18 04:36:38;;;;;;;4.25;3.90;;;5.20;99.90;;;;;;5120274;27;20198;-71
2022/04/18 04:39:04;;;;;;;4.47;3.88;;;5.20;99.90;;;;;;5138483;27;20209;-71
2022/04/18 04:41:31;;;;;;;4.72;4.32;;;5.20;99.90;;;;;;5119154;27;20213;-71
2022/04/18 04:43:57;;;;;;;6.22;4.10;;;5.20;99.90;;;;;;5118943;27;20208;-71
2022/04/18 04:46:24;;;;;;;3.78;3.47;;;5.20;99.90;;;;;;5137905;27;20193;-71
2022/04/18 04:48:50;;;;;;;4.82;4.32;;;5.30;99.90;;;;;;5137090;27;20201;-71
2022/04/18 04:51:17;;;;;;;7.72;4.20;;;5.30;99.90;;;;;;5137488;27;20681;-71
2022/04/18 04:53:45;;;;;;;4.22;3.83;;;5.30;99.90;;;;;;5119658;27;20214;-71
2022/04/18 04:56:12;;;;;;;4.60;4.30;;;5.40;99.90;;;;;;5119624;27;20667;-71
2022/04/18 04:58:38;;;;;;;6.40;4.97;;;5.40;99.90;;;;;;5136621;27;20262;-71
2022/04/18 05:01:07;;;;;;;4.68;4.05;;;5.50;99.90;;;;;;5137819;27;20217;-71
2022/04/18 05:03:33;;;;;;;4.65;4.25;;;5.60;99.90;;;;;;5137170;27;20198;-71
2022/04/18 05:05:59;;;;;;;6.38;4.05;;;5.60;99.90;;;;;;5138263;27;20214;-71
2022/04/18 05:08:26;;;;;;;6.40;3.80;;;5.60;99.90;;;;;;5118964;27;20609;-71
2022/04/18 05:10:59;;;;;;;4.70;3.65;;;5.70;99.90;;;;;;5119268;27;20201;-73
2022/04/18 05:13:27;;;;;;;3.72;3.42;;;5.80;99.90;;;;;;5103334;27;20205;-73
2022/04/18 05:15:53;;;;;;;7.07;6.15;;;5.80;99.90;;;;;;5137686;27;20224;-73
2022/04/18 05:18:19;;;;;;;7.88;3.83;;;5.90;99.90;;;;;;5137461;27;20198;-73
2022/04/18 05:20:46;;;;;;;5.22;4.68;;;6.00;99.90;;;;;;5137121;27;20696;-73
2022/04/18 05:23:22;;;;;;;4.80;4.00;;;5.90;99.90;;;;;;5136971;27;20186;-71
2022/04/18 05:25:48;;;;;;;6.82;5.03;;;5.70;99.90;;;;;;5136441;27;20208;-71
2022/04/18 05:28:15;;;;;;;7.10;4.40;;;5.70;99.90;;;;;;5136880;27;20216;-71
2022/04/18 05:30:41;;;;;;;5.60;3.80;;;5.70;99.90;;;;;;5118352;27;20290;-71
2022/04/18 05:33:08;;;;;;;4.70;4.30;;;5.70;99.90;;;;;;5136237;27;20576;-71
2022/04/18 05:35:34;;;;;;;4.55;3.90;;;5.90;99.90;;;;;;5136676;27;20209;-71
2022/04/18 05:38:01;;;;;;;8.73;4.60;;;6.00;99.90;;;;;;5117721;27;20560;-71
2022/04/18 05:40:27;;;;;;;8.20;4.97;;;6.10;99.90;;;;;;5101188;27;20684;-73
2022/04/18 05:42:55;;;;;;;10.57;4.75;;;6.30;99.90;;;;;;5137320;27;20205;-71
2022/04/18 05:45:21;;;;;;;6.00;4.43;;;6.40;99.90;;;;;;5135424;27;20202;-71
2022/04/18 05:47:48;;;;;;;4.45;4.15;;;6.50;99.90;;;;;;5136308;27;20653;-71
2022/04/18 05:50:14;;;;;;;7.25;4.55;;;6.50;99.90;;;;;;5118343;27;20190;-71
2022/04/18 05:52:41;;;;;;;4.80;4.35;;;6.60;99.90;;;;;;5136489;27;20225;-71
2022/04/18 05:55:07;;;;;;;6.03;4.20;;;6.60;99.90;;;;;;5117751;27;20239;-71
2022/04/18 05:57:35;;;;;;;5.13;4.50;;;6.70;99.90;;;;;;5117547;27;20201;-71
2022/04/18 06:00:03;;;;;;;4.72;4.10;;;6.80;99.90;;;;;;5136072;27;20562;-71
2022/04/18 06:02:29;;;;;;;4.95;3.75;;;6.80;99.90;;;;;;5117417;27;20221;-71
2022/04/18 06:04:56;;;;;;;5.50;5.03;;;7.00;99.90;;;;;;5135556;27;20702;-71
2022/04/18 06:07:22;;;;;;;7.80;4.50;;;7.00;99.90;;;;;;5134501;27;20202;-71
2022/04/18 06:09:48;;;;;;;6.60;4.80;;;7.00;99.90;;;;;;5136108;27;20232;-71
2022/04/18 06:12:21;;;;;;;5.38;4.53;;;7.10;99.90;;;;;;5136344;27;20202;-71
2022/04/18 06:14:47;;;;;;;5.00;3.70;;;7.10;99.90;;;;;;5136854;27;20220;-71
2022/04/18 06:17:14;;;;;;;5.95;5.20;;;7.20;99.90;;;;;;5135317;27;20194;-71
2022/04/18 06:19:41;;;;;;;5.22;4.72;;;7.40;99.90;;;;;;5116600;28;20190;-72
2022/04/18 06:22:07;;;;;;;6.63;5.30;;;7.40;99.90;;;;;;5135961;27;20221;-72
2022/04/18 06:24:34;;;;;;;7.43;5.63;;;7.50;99.90;;;;;;5118363;28;20197;-71
2022/04/18 06:27:00;;;;;;;6.88;5.63;;;7.50;99.90;;;;;;5136417;28;20285;-71
2022/04/18 06:29:27;;;;;;;5.25;4.78;;;7.60;99.90;;;;;;5136733;27;20202;-71
2022/04/18 06:31:53;;;;;;;5.00;4.50;;;7.70;99.90;;;;;;5143742;27;20229;-71
2022/04/18 06:34:21;;;;;;;5.93;5.30;;;7.80;99.90;;;;;;5124240;27;20289;-71
2022/04/18 06:36:47;;;;;;;5.47;4.97;;;7.90;99.90;;;;;;5142051;27;20274;-71
2022/04/18 06:39:14;;;;;;;5.10;4.68;;;8.00;99.90;;;;;;5141870;27;20576;-71
2022/04/18 06:41:40;;;;;;;8.63;5.75;;;8.10;99.90;;;;;;5142383;27;20218;-71
2022/04/18 06:44:06;;;;;;;6.53;5.35;;;8.20;99.90;;;;;;5144013;27;20197;-71
2022/04/18 06:46:33;;;;;;;6.65;5.30;;;8.10;99.90;;;;;;5143810;27;20189;-72
2022/04/18 06:48:59;;;;;;;8.43;4.75;;;8.20;99.90;;;;;;5124682;27;20691;-72
2022/04/18 06:51:26;;;;;;;10.20;5.35;;;8.30;99.90;;;;;;5124953;27;20202;-72
2022/04/18 06:53:52;;;;;;;5.78;5.10;;;8.30;99.90;;;;;;5123922;27;20637;-73
2022/04/18 06:59:03;;;;;;;5.30;4.80;;;8.60;99.90;;;;;;5142676;27;20194;-73
2022/04/18 07:01:30;;;;;;;6.55;5.40;;;8.50;99.90;;;;;;5142904;27;20218;-73
2022/04/18 07:03:56;;;;;;;6.25;4.80;;;8.80;99.90;;;;;;5141731;27;20645;-73
2022/04/18 07:06:23;;;;;;;5.70;4.50;;;8.90;99.90;;;;;;5142491;27;20697;-73
2022/04/18 07:08:50;;;;;;;10.02;4.60;;;9.00;99.90;;;;;;5124249;27;20226;-73
2022/04/18 07:11:16;;;;;;;5.68;4.93;;;9.10;99.90;;;;;;5123367;27;20288;-73
2022/04/18 07:13:43;;;;;;;5.82;4.22;;;9.20;99.90;;;;;;5142501;27;20657;-73
2022/04/18 07:16:09;;;;;;;6.00;4.88;;;9.20;99.90;;;;;;5123843;27;20209;-73
2022/04/18 07:18:36;;;;;;;9.20;5.68;;;9.20;99.90;;;;;;5142911;27;20193;-73
2022/04/18 07:21:03;;;;;;;5.82;5.10;;;9.30;99.90;;;;;;5143079;27;20270;-73
2022/04/18 07:23:29;;;;;;;6.55;5.28;;;9.50;99.90;;;;;;5142410;27;20198;-72
2022/04/18 07:25:56;;;;;;;5.20;4.70;;;9.70;99.90;;;;;;5123752;27;20598;-72
2022/04/18 07:28:24;;;;;;;4.85;4.35;;;9.80;99.90;;;;;;5142742;27;20201;-72
2022/04/18 07:30:50;;;;;;;4.80;4.32;;;9.90;99.90;;;;;;5142934;27;20212;-73
2022/04/18 07:33:16;;;;;;;4.97;4.50;;;9.90;99.90;;;;;;5142570;27;20672;-72
2022/04/18 07:35:43;;;;;;;4.90;4.50;;;10.10;99.90;;;;;;5142427;27;20201;-72
2022/04/18 07:40:55;;;;;;;5.18;4.78;;;10.30;99.90;;;;;;5141755;27;20189;-72
2022/04/18 07:43:24;;;;;;;7.18;3.88;;;10.50;99.90;;;;;;5119812;27;20571;-72
2022/04/18 07:45:50;;;;;;;5.80;4.80;;;10.60;99.90;;;;;;5139696;27;20273;-72
2022/04/18 07:48:17;;;;;;;4.68;4.28;;;10.50;99.90;;;;;;5138401;27;20194;-72
2022/04/18 07:53:28;;;;;;;6.45;4.40;;;10.80;99.90;;;;;;5138306;27;20189;-72
2022/04/18 07:55:55;;;;;;;4.40;4.00;;;11.00;99.90;;;;;;5139243;27;20649;-72
2022/04/18 07:58:21;;;;;;;4.80;4.40;;;11.10;99.90;;;;;;5138993;27;20205;-72
2022/04/18 08:00:48;;;;;;;5.50;4.88;;;11.10;99.90;;;;;;5086250;27;20197;-72
2022/04/18 08:03:16;;;;;;;4.75;4.35;;;11.20;99.90;;;;;;5120579;27;20236;-72
2022/04/18 08:05:43;;;;;;;6.00;4.53;;;11.40;99.90;;;;;;5137922;27;20225;-72
2022/04/18 08:08:09;;;;;;;8.60;4.82;;;11.30;99.90;;;;;;5138394;27;20258;-72
2022/04/18 08:10:36;;;;;;;7.07;4.70;;;11.40;99.90;;;;;;5120284;27;20715;-73
2022/04/18 08:13:04;;;;;;;4.97;4.40;;;11.50;99.90;;;;;;5137723;27;20201;-72
2022/04/18 08:15:32;;;;;;;5.38;4.20;;;11.80;99.90;;;;;;5137436;27;20641;-73
2022/04/18 08:17:58;;;;;;;6.40;5.18;;;11.80;99.90;;;;;;5119917;27;20209;-73
2022/04/18 08:20:25;;;;;;;4.57;4.18;;;11.90;99.90;;;;;;5138067;27;20198;-73
2022/04/18 08:22:52;;;;;;;6.35;5.45;;;12.10;99.90;;;;;;5137753;27;20241;-72
2022/04/18 08:25:18;;;;;;;5.13;4.65;;;12.20;99.90;;;;;;5138696;27;20289;-73
2022/04/18 08:27:45;;;;;;;5.05;4.65;;;12.40;99.90;;;;;;5119559;27;20206;-73
2022/04/18 08:30:11;;;;;;;5.90;5.32;;;12.50;99.90;;;;;;5138189;27;20574;-73
2022/04/18 08:32:39;;;;;;;5.07;4.68;;;12.50;99.90;;;;;;5118525;27;20202;-73
2022/04/18 08:35:07;;;;;;;5.13;4.68;;;12.50;99.90;;;;;;5137284;27;20275;-73
2022/04/18 08:37:34;;;;;;;7.27;4.53;;;12.50;99.90;;;;;;5137267;27;20661;-73
2022/04/18 08:40:07;;;;;;;5.18;4.45;;;12.80;99.90;;;;;;5137596;27;20616;-73
2022/04/18 08:42:40;;;;;;;4.60;4.30;;;13.00;99.90;;;;;;5137765;27;20210;-73
2022/04/18 08:45:12;;;;;;;6.50;4.77;;;13.30;99.90;;;;;;5137625;27;21215;-73
2022/04/18 08:53:16;;;;;;;5.15;4.70;;;13.10;99.90;;;;;;5137400;27;20654;-73
2022/04/18 08:55:42;;;;;;;5.40;4.40;;;13.20;99.90;;;;;;5137581;27;20197;-73
2022/04/18 08:58:14;;;;;;;5.63;5.03;;;13.30;99.90;;;;;;5138792;27;20652;-73
2022/04/18 09:00:41;;;;;;;4.97;4.50;;;13.30;99.90;;;;;;5138796;27;20201;-73
2022/04/18 09:03:07;;;;;;;11.73;4.90;;;13.40;99.90;;;;;;5120237;27;20675;-72
2022/04/18 09:05:36;;;;;;;7.50;4.70;;;13.60;99.90;;;;;;5138952;27;20631;-73
2022/04/18 09:08:05;;;;;;;5.50;4.53;;;13.70;99.90;;;;;;5086412;27;20634;-73
2022/04/18 09:10:32;;;;;;;4.73;4.33;;;13.80;99.90;;;;;;5138774;27;20568;-73
2022/04/18 09:13:04;;;;;;;4.90;4.50;;;13.80;99.90;;;;;;5118920;27;20619;-73
2022/04/18 09:15:30;;;;;;;5.23;4.07;;;13.90;99.90;;;;;;5137280;27;20622;-73
2022/04/18 09:18:07;;;;;;;8.40;5.03;;;13.80;99.90;;;;;;5137129;27;21051;-73
2022/04/18 09:20:43;;;;;;;8.70;5.43;;;14.10;99.90;;;;;;5138261;27;20744;-73
2022/04/18 09:23:30;;;;;;;5.40;4.57;;;14.20;99.90;;;;;;5138099;27;21215;-73
2022/04/18 09:26:01;;;;;;;4.95;4.45;;;14.40;99.90;;;;;;5138404;27;20735;-74
2022/04/18 09:28:32;;;;;;;4.33;4.03;;;14.30;99.90;;;;;;5137974;27;20193;-74
2022/04/18 09:31:07;;;;;;;8.73;3.93;;;14.40;99.90;;;;;;5119671;27;20670;-74
2022/04/18 09:33:44;;;;;;;4.20;3.80;;;14.50;99.90;;;;;;5137221;27;20734;-71
2022/04/18 09:36:17;;;;;;;14.27;4.87;;;14.50;99.90;;;;;;5136537;27;21110;-71
2022/04/18 09:38:52;;;;;;;15.13;5.97;;;14.80;99.90;;;;;;5118658;27;20626;-72
2022/04/18 09:41:24;;;;;;;5.50;4.80;;;14.70;99.90;;;;;;5136288;27;20568;-69
2022/04/18 09:43:52;;;;;;;5.00;4.20;;;14.80;99.90;;;;;;5136277;27;20623;-69
2022/04/18 09:46:19;;;;;;;6.70;4.63;;;15.00;99.90;;;;;;5136062;27;20603;-72
2022/04/18 09:48:48;;;;;;;5.73;4.10;;;15.00;99.90;;;;;;5137384;27;20626;-71
2022/04/18 09:51:34;;;;;;;3.90;3.70;;;15.10;99.90;;;;;;5118827;27;20607;-73
2022/04/18 09:54:04;;;;;;;4.23;3.87;;;15.00;99.90;;;;;;5136650;27;20594;-74
2022/04/18 09:56:30;;;;;;;4.60;4.30;;;15.10;99.90;;;;;;5137004;27;20609;-72
2022/04/18 09:58:58;;;;;;;4.77;4.17;;;15.30;99.90;;;;;;5136991;27;20599;-72
2022/04/18 10:01:25;;;;;;;4.80;4.30;;;15.20;99.90;;;;;;5136870;27;20610;-71
2022/04/18 10:03:53;;;;;;;4.07;3.70;;;15.10;99.90;;;;;;5117262;27;20608;-72
2022/04/18 10:06:20;;;;;;;4.20;3.37;;;15.20;99.90;;;;;;5136546;27;20638;-72
2022/04/18 10:08:47;;;;;;;3.60;3.30;;;15.40;99.90;;;;;;5136226;27;20643;-71
2022/04/18 10:11:13;;;;;;;3.43;3.23;;;15.10;99.90;;;;;;5136857;27;20986;-71
2022/04/18 10:13:41;;;;;;;5.07;2.83;;;15.40;99.90;;;;;;5135497;27;21395;-71
2022/04/18 10:16:08;;;;;;;6.53;4.13;;;15.60;99.90;;;;;;5135772;27;20623;-70
2022/04/18 10:18:54;;;;;;;4.10;3.70;;;15.60;99.90;;;;;;5136244;27;20959;-70
2022/04/18 10:21:29;;;;;;;4.53;3.70;;;15.70;99.90;;;;;;5136439;27;20580;-71
2022/04/18 10:24:20;;;;;;;4.63;3.40;;;15.90;99.90;;;;;;5136100;27;20660;-72
2022/04/18 10:27:21;;;;;;;3.70;3.20;;;15.50;99.90;;;;;;5135794;27;20588;-71
2022/04/18 10:29:51;;;;;;;3.83;3.07;;;15.80;99.90;;;;;;5135876;28;20599;-72
2022/04/18 10:32:22;;;;;;;3.50;3.20;;;16.10;99.90;;;;;;5117037;28;20619;-72
2022/04/18 10:34:50;;;;;;;3.53;3.30;;;16.10;99.90;;;;;;5135578;28;20615;-72
2022/04/18 10:37:16;;;;;;;5.80;3.70;;;16.10;99.90;;;;;;5135850;28;20664;-71
2022/04/18 10:39:43;;;;;;;3.40;3.20;;;16.20;99.90;;;;;;5116369;28;20615;-71
2022/04/18 10:42:27;;;;;;;3.20;3.00;;;16.10;99.90;;;;;;5135493;28;20654;-72
2022/04/18 10:45:00;;;;;;;3.83;3.20;;;16.40;99.90;;;;;;5135112;28;20576;-72
2022/04/18 10:47:56;;;;;;;4.77;4.33;;;16.50;99.90;;;;;;5135411;28;20587;-72
2022/04/18 10:50:27;;;;;;;4.37;3.70;;;16.20;99.90;;;;;;5135192;28;20611;-72
2022/04/18 10:53:21;;;;;;;3.50;3.20;;;15.90;99.90;;;;;;5134849;28;20620;-73
2022/04/18 10:55:51;;;;;;;5.53;3.67;;;16.30;99.90;;;;;;5135116;28;20591;-73
2022/04/18 10:58:21;;;;;;;4.17;3.67;;;16.60;99.90;;;;;;5135677;28;20619;-73
2022/04/18 11:00:53;;;;;;;4.33;3.93;;;16.70;99.90;;;;;;5135500;28;20629;-73
2022/04/18 11:03:39;;;;;;;4.00;3.70;;;17.00;99.90;;;;;;5135626;28;20662;-73
2022/04/18 11:06:17;;;;;;;3.47;3.27;;;16.70;99.90;;;;;;5135098;27;20635;-73
2022/04/18 11:09:03;;;;;;;2.90;2.53;;;16.90;99.90;;;;;;5135489;28;20639;-73
2022/04/18 11:11:47;;;;;;;3.93;3.53;;;16.80;99.90;;;;;;5135158;28;20597;-73
2022/04/18 11:14:19;;;;;;;3.60;3.40;;;17.30;99.90;;;;;;5135375;28;20542;-71
2022/04/18 11:16:49;;;;;;;3.23;3.03;;;17.60;99.90;;;;;;5137718;27;20598;-71
2022/04/18 11:19:15;;;;;;;3.50;2.87;;;18.40;99.90;;;;;;5120585;27;20631;-71
2022/04/18 11:21:57;;;;;;;3.40;3.00;;;17.90;99.90;;;;;;5120798;27;20648;-71
2022/04/18 11:24:47;;;;;;;3.27;3.07;;;18.20;99.90;;;;;;5138865;27;20579;-71
2022/04/18 11:27:14;;;;;;;3.70;3.50;;;18.50;99.90;;;;;;5138341;27;20624;-71
2022/04/18 11:29:55;;;;;;;3.63;3.43;;;18.40;99.90;;;;;;5139191;27;20625;-71
2022/04/18 11:32:24;;;;;;;3.47;3.17;;;17.70;99.90;;;;;;5138710;27;20571;-71
2022/04/18 11:34:53;;;;;;;3.63;3.43;;;18.30;99.90;;;;;;5138815;27;20610;-71
2022/04/18 11:37:27;;;;;;;3.30;3.10;;;18.90;99.90;;;;;;5138764;27;21173;-71
2022/04/18 11:39:56;;;;;;;3.50;3.20;;;19.20;99.90;;;;;;5138833;27;20568;-71
2022/04/18 11:42:25;;;;;;;3.53;3.33;;;19.70;99.90;;;;;;5137639;27;20651;-71
2022/04/18 11:44:54;;;;;;;3.80;3.50;;;19.60;99.90;;;;;;5137742;27;20617;-71
2022/04/18 11:47:24;;;;;;;4.17;3.80;;;18.90;99.90;;;;;;5137753;27;20982;-71
2022/04/18 11:49:56;;;;;;;4.97;3.90;;;19.80;99.90;;;;;;5138038;27;21043;-71
2022/04/18 11:52:34;;;;;;;4.40;4.00;;;18.90;99.90;;;;;;5137939;27;20619;-73
2022/04/18 11:55:13;;;;;;;4.13;3.87;;;19.40;99.90;;;;;;5138224;27;20568;-71
2022/04/18 11:57:45;;;;;;;4.00;3.30;;;19.70;99.90;;;;;;5137876;27;21424;-73
2022/04/18 12:08:36;;;;;;;4.80;4.40;;;20.40;99.90;;;;;;5138071;27;20648;-73
2022/04/18 12:11:02;;;;;;;4.93;4.63;;;21.10;99.90;;;;;;5137911;27;20619;-73
2022/04/18 12:13:30;;;;;;;4.17;3.90;;;21.30;99.90;;;;;;5119123;27;21214;-73
2022/04/18 12:15:59;;;;;;;4.27;3.97;;;20.40;99.90;;;;;;5137537;27;20622;-73
2022/04/18 12:18:26;;;;;;;7.50;3.90;;;20.50;99.90;;;;;;5138550;27;20618;-73
2022/04/18 12:20:53;;;;;;;4.40;4.07;;;20.40;99.90;;;;;;5138539;27;20723;-73
2022/04/18 12:23:20;;;;;;;4.77;4.13;;;20.30;99.90;;;;;;5138415;27;20656;-73
2022/04/18 12:25:49;;;;;;;4.20;3.90;;;19.70;99.90;;;;;;5138532;27;20695;-73
2022/04/18 12:28:18;;;;;;;4.00;3.77;;;20.40;99.90;;;;;;5139980;27;20698;-73
2022/04/18 12:30:46;;;;;;;4.80;4.23;;;21.80;99.90;;;;;;5140485;27;20576;-74
2022/04/18 12:33:15;;;;;;;4.53;4.20;;;22.30;99.90;;;;;;5139965;27;20731;-73
2022/04/18 12:35:46;;;;;;;4.20;3.90;;;21.80;99.90;;;;;;5139834;27;20622;-73
2022/04/18 12:38:14;;;;;;;4.70;4.40;;;21.90;99.90;;;;;;5138641;27;20615;-73
2022/04/18 12:40:41;;;;;;;4.80;4.30;;;20.50;99.90;;;;;;5121175;27;21146;-73
2022/04/18 12:43:14;;;;;;;4.10;3.80;;;20.20;99.90;;;;;;5120030;27;21204;-73
2022/04/18 12:45:48;;;;;;;6.80;3.93;;;21.20;99.90;;;;;;5137831;27;20611;-73
2022/04/18 12:48:20;;;;;;;3.90;3.50;;;21.90;99.90;;;;;;5119898;27;20631;-73
2022/04/18 12:50:47;;;;;;;3.80;3.60;;;21.50;99.90;;;;;;5137912;27;20583;-73
2022/04/18 12:53:14;;;;;;;5.70;3.40;;;21.80;99.90;;;;;;5120415;27;20654;-73
2022/04/18 12:55:43;;;;;;;4.20;3.90;;;22.60;99.90;;;;;;5139035;27;20600;-73
2022/04/18 12:58:18;;;;;;;5.13;4.13;;;21.90;99.90;;;;;;5140093;27;21158;-73
2022/04/18 13:00:46;;;;;;;4.33;3.93;;;21.70;99.90;;;;;;5138942;27;20618;-73
2022/04/18 13:03:14;;;;;;;5.40;4.53;;;21.80;99.90;;;;;;5139050;27;20608;-73
2022/04/18 13:05:45;;;;;;;4.83;4.57;;;22.40;99.90;;;;;;5137810;27;20729;-73
2022/04/18 13:08:15;;;;;;;4.20;3.90;;;22.40;99.90;;;;;;5138624;27;20639;-73
2022/04/18 13:10:43;;;;;;;4.13;3.83;;;22.50;99.90;;;;;;5120852;27;20628;-73
2022/04/18 13:13:14;;;;;;;4.03;3.83;;;21.90;99.90;;;;;;5139171;27;20669;-73
2022/04/18 13:15:42;;;;;;;4.07;3.77;;;21.90;99.90;;;;;;5139251;27;20710;-72
2022/04/18 13:18:19;;;;;;;3.70;3.50;;;22.00;99.90;;;;;;5140081;27;20720;-73
2022/04/18 13:20:45;;;;;;;4.03;3.80;;;22.50;99.90;;;;;;5137369;27;20571;-73
2022/04/18 13:23:12;;;;;;;4.00;3.70;;;23.10;99.90;;;;;;5138465;27;20615;-73
2022/04/18 13:25:41;;;;;;;3.70;3.40;;;23.40;99.90;;;;;;5136911;27;21189;-73
2022/04/18 13:28:09;;;;;;;4.50;3.87;;;23.60;99.90;;;;;;5136872;27;20615;-73
2022/04/18 13:30:37;;;;;;;4.10;3.80;;;22.00;99.90;;;;;;5137427;27;20981;-73
2022/04/18 13:33:08;;;;;;;4.03;3.60;;;21.10;99.90;;;;;;5118468;27;20658;-73